Time;durP1;ratioP1;P1;durP2;ratioP2;P2;SDS_P1;SDS_P2;PMS_P1;PMS_P2;Temp;Humidity;BMP_temperature;BMP_pressure;BME280_temperature;BME280_humidity;BME280_pressure;Samples;Min_cycle;Max_cycle;Signal;HPM_P1;HPM_P2
2022/09/16 00:01:27;;;;;;;18.83;17.73;;;;;;;;;;5040680;28;20457;-83
2022/09/16 00:03:57;;;;;;;19.00;17.80;;;;;;;;;;5041798;28;20478;-83
2022/09/16 00:06:25;;;;;;;18.27;17.07;;;;;;;;;;5042295;28;20445;-82
2022/09/16 00:08:54;;;;;;;18.57;17.40;;;;;;;;;;5041789;28;20458;-84
2022/09/16 00:11:22;;;;;;;18.53;17.27;;;;;;;;;;5040945;28;20435;-82
2022/09/16 00:13:50;;;;;;;20.27;18.43;;;;;;;;;;5041096;28;20454;-83
2022/09/16 00:16:19;;;;;;;17.70;16.60;;;;;;;;;;5040596;28;20486;-83
2022/09/16 00:18:46;;;;;;;18.07;17.07;;;;;;;;;;5040814;28;20468;-83
2022/09/16 00:21:15;;;;;;;17.30;16.30;;;;;;;;;;5040601;28;20459;-83
2022/09/16 00:23:42;;;;;;;17.63;16.50;;;;;;;;;;5041125;28;20468;-83
2022/09/16 00:26:10;;;;;;;17.87;16.97;;;;;;;;;;5040878;28;20451;-82
2022/09/16 00:28:37;;;;;;;16.90;16.10;;;;;;;;;;5041419;28;21003;-83
2022/09/16 00:31:05;;;;;;;19.40;18.10;;;;;;;;;;5041243;28;20436;-84
2022/09/16 00:33:32;;;;;;;18.53;17.23;;;;;;;;;;5040816;28;20494;-82
2022/09/16 00:36:07;;;;;;;17.00;16.20;;;;;;;;;;5041307;28;20436;-83
2022/09/16 00:38:36;;;;;;;17.10;16.00;;;;;;;;;;5040759;28;20457;-83
2022/09/16 00:41:04;;;;;;;19.80;17.90;;;;;;;;;;5042554;28;20454;-82
2022/09/16 00:43:47;;;;;;;17.07;16.10;;;;;;;;;;5040646;28;20541;-83
2022/09/16 00:46:14;;;;;;;16.90;16.10;;;;;;;;;;5040706;28;20446;-83
2022/09/16 00:48:41;;;;;;;17.67;16.77;;;;;;;;;;5041532;28;20517;-83
2022/09/16 00:51:10;;;;;;;18.30;16.80;;;;;;;;;;5041074;28;20865;-82
2022/09/16 00:53:41;;;;;;;17.20;16.40;;;;;;;;;;5040812;28;20484;-82
2022/09/16 00:56:10;;;;;;;16.80;16.00;;;;;;;;;;5042283;28;20436;-83
2022/09/16 00:58:40;;;;;;;17.40;16.37;;;;;;;;;;5045193;28;20434;-84
2022/09/16 01:01:07;;;;;;;20.33;18.40;;;;;;;;;;5044487;28;20940;-84
2022/09/16 01:03:36;;;;;;;17.57;16.67;;;;;;;;;;5044856;28;20441;-83
2022/09/16 01:06:03;;;;;;;17.00;16.10;;;;;;;;;;5044649;28;20442;-83
2022/09/16 01:08:31;;;;;;;17.20;16.27;;;;;;;;;;5044927;28;20461;-82
2022/09/16 01:11:00;;;;;;;17.40;16.33;;;;;;;;;;5044788;28;20454;-84
2022/09/16 01:13:27;;;;;;;18.20;16.97;;;;;;;;;;5044351;28;20505;-83
2022/09/16 01:15:59;;;;;;;17.80;16.33;;;;;;;;;;5044101;28;20475;-83
2022/09/16 01:18:32;;;;;;;248.83;207.73;;;;;;;;;;5044707;28;20414;-83
2022/09/16 01:21:07;;;;;;;313.60;221.13;;;;;;;;;;5044355;28;20474;-83
2022/09/16 01:23:48;;;;;;;16.93;15.87;;;;;;;;;;5044452;28;20481;-83
2022/09/16 01:26:28;;;;;;;316.33;207.70;;;;;;;;;;5044608;28;20490;-83
2022/09/16 01:29:15;;;;;;;425.23;216.80;;;;;;;;;;5044289;28;20442;-83
2022/09/16 01:31:49;;;;;;;17.27;16.17;;;;;;;;;;5043923;28;20459;-84
2022/09/16 01:34:20;;;;;;;18.37;16.90;;;;;;;;;;5043705;28;20429;-83
2022/09/16 01:36:50;;;;;;;17.13;16.33;;;;;;;;;;5043500;28;20452;-83
2022/09/16 01:39:23;;;;;;;294.20;194.30;;;;;;;;;;5044066;28;20391;-83
2022/09/16 01:41:58;;;;;;;17.37;16.30;;;;;;;;;;5043001;28;20423;-84
2022/09/16 01:44:29;;;;;;;17.20;16.20;;;;;;;;;;5044277;28;20410;-82
2022/09/16 01:47:02;;;;;;;16.83;16.03;;;;;;;;;;5044002;28;20450;-83
2022/09/16 01:49:36;;;;;;;319.00;221.70;;;;;;;;;;5044400;28;20497;-83
2022/09/16 01:52:10;;;;;;;17.43;16.43;;;;;;;;;;5043732;28;20485;-83
2022/09/16 01:54:40;;;;;;;17.50;16.30;;;;;;;;;;5043648;28;20446;-83
2022/09/16 01:57:11;;;;;;;17.17;16.30;;;;;;;;;;5043368;28;20430;-83
2022/09/16 01:59:42;;;;;;;17.57;16.67;;;;;;;;;;5044493;28;20425;-83
2022/09/16 02:02:14;;;;;;;17.07;16.27;;;;;;;;;;5042868;28;20446;-83
2022/09/16 02:04:43;;;;;;;299.73;203.60;;;;;;;;;;5043335;28;20948;-82
2022/09/16 02:07:11;;;;;;;18.13;16.70;;;;;;;;;;5043181;28;20483;-83
2022/09/16 02:09:41;;;;;;;17.70;16.80;;;;;;;;;;5043154;28;20835;-82
2022/09/16 02:12:11;;;;;;;17.80;16.60;;;;;;;;;;5042474;28;20521;-83
2022/09/16 02:14:40;;;;;;;17.33;16.53;;;;;;;;;;5043102;28;20936;-83
2022/09/16 02:17:09;;;;;;;17.90;16.70;;;;;;;;;;5043383;28;20454;-83
2022/09/16 02:19:40;;;;;;;17.10;16.10;;;;;;;;;;5042644;28;20443;-84
2022/09/16 02:22:09;;;;;;;16.97;16.17;;;;;;;;;;5042554;28;20441;-83
2022/09/16 02:24:38;;;;;;;18.47;17.27;;;;;;;;;;5042646;28;20479;-83
2022/09/16 02:27:08;;;;;;;17.13;16.20;;;;;;;;;;5043006;28;20504;-83
2022/09/16 02:29:38;;;;;;;18.20;17.30;;;;;;;;;;5043844;28;20457;-84
2022/09/16 02:32:08;;;;;;;17.40;16.50;;;;;;;;;;5042826;28;20950;-83
2022/09/16 02:34:38;;;;;;;17.80;16.80;;;;;;;;;;5042955;28;20410;-83
2022/09/16 02:37:08;;;;;;;17.57;16.47;;;;;;;;;;5042114;28;20441;-83
2022/09/16 02:39:38;;;;;;;187.60;171.63;;;;;;;;;;5042911;28;20416;-83
2022/09/16 02:42:05;;;;;;;18.00;17.00;;;;;;;;;;5041819;28;20462;-83
2022/09/16 02:44:33;;;;;;;17.50;16.50;;;;;;;;;;5042732;28;20426;-83
2022/09/16 02:47:02;;;;;;;17.37;16.47;;;;;;;;;;5042304;28;20491;-82
2022/09/16 02:49:34;;;;;;;18.33;17.13;;;;;;;;;;5041820;28;20445;-83
2022/09/16 02:52:06;;;;;;;17.67;16.77;;;;;;;;;;5042207;28;20467;-83
2022/09/16 02:54:37;;;;;;;17.73;16.83;;;;;;;;;;5042418;28;20438;-83
2022/09/16 02:57:05;;;;;;;17.57;16.40;;;;;;;;;;5042584;28;20878;-83
2022/09/16 02:59:33;;;;;;;17.80;16.90;;;;;;;;;;5042378;28;20421;-83
2022/09/16 03:02:00;;;;;;;18.50;16.93;;;;;;;;;;5041619;28;20463;-84
2022/09/16 03:04:29;;;;;;;17.60;16.50;;;;;;;;;;5042026;28;20438;-83
2022/09/16 03:06:56;;;;;;;17.77;16.77;;;;;;;;;;5042073;28;20451;-83
2022/09/16 03:09:24;;;;;;;18.40;17.47;;;;;;;;;;5041549;28;20490;-83
2022/09/16 03:12:06;;;;;;;17.50;16.40;;;;;;;;;;5042323;28;20448;-83
2022/09/16 03:14:42;;;;;;;17.17;16.37;;;;;;;;;;5041854;28;20436;-83
2022/09/16 03:17:15;;;;;;;17.37;16.40;;;;;;;;;;5041139;28;20454;-83
2022/09/16 03:19:47;;;;;;;18.67;17.40;;;;;;;;;;5039749;28;20405;-83
2022/09/16 03:22:19;;;;;;;17.83;16.83;;;;;;;;;;5040648;28;20997;-82
2022/09/16 03:24:52;;;;;;;19.17;17.77;;;;;;;;;;5040405;28;20387;-83
2022/09/16 03:27:21;;;;;;;18.50;17.40;;;;;;;;;;5040310;28;20490;-83
2022/09/16 03:29:54;;;;;;;18.00;16.83;;;;;;;;;;5040808;28;20857;-82
2022/09/16 03:32:23;;;;;;;18.47;17.17;;;;;;;;;;5039835;28;20430;-82
2022/09/16 03:34:52;;;;;;;17.40;16.40;;;;;;;;;;5041061;28;20480;-82
2022/09/16 03:37:22;;;;;;;18.40;17.10;;;;;;;;;;5040440;28;20987;-82
2022/09/16 03:39:52;;;;;;;17.50;16.30;;;;;;;;;;5040673;28;20440;-83
2022/09/16 03:42:20;;;;;;;18.00;16.90;;;;;;;;;;5040179;28;20844;-83
2022/09/16 03:44:47;;;;;;;17.70;16.70;;;;;;;;;;5041235;28;20456;-83
2022/09/16 03:47:16;;;;;;;16.83;16.00;;;;;;;;;;5040095;28;20483;-83
2022/09/16 03:49:43;;;;;;;19.27;17.87;;;;;;;;;;5040681;28;20451;-83
2022/09/16 03:52:11;;;;;;;17.33;16.43;;;;;;;;;;5040357;28;20438;-83
2022/09/16 03:54:38;;;;;;;17.50;16.20;;;;;;;;;;5040494;28;20788;-83
2022/09/16 03:57:06;;;;;;;17.07;16.23;;;;;;;;;;5040433;28;20460;-83
2022/09/16 03:59:33;;;;;;;18.13;16.97;;;;;;;;;;5040420;28;20414;-83
2022/09/16 04:02:01;;;;;;;17.87;16.90;;;;;;;;;;5039162;28;20467;-84
2022/09/16 04:04:30;;;;;;;17.03;16.13;;;;;;;;;;5040343;28;20391;-83
2022/09/16 04:06:57;;;;;;;16.60;15.70;;;;;;;;;;5041008;28;20455;-83
2022/09/16 04:09:24;;;;;;;17.63;16.63;;;;;;;;;;5040166;28;20451;-84
2022/09/16 04:11:52;;;;;;;17.93;16.83;;;;;;;;;;5039954;28;20466;-83
2022/09/16 04:14:19;;;;;;;17.60;16.60;;;;;;;;;;5039640;28;20446;-82
2022/09/16 04:16:46;;;;;;;17.50;16.60;;;;;;;;;;5040207;28;20441;-83
2022/09/16 04:19:14;;;;;;;17.60;16.70;;;;;;;;;;5040709;28;20824;-82
2022/09/16 04:21:43;;;;;;;18.40;17.33;;;;;;;;;;5039862;28;20443;-82
2022/09/16 04:24:11;;;;;;;18.63;17.40;;;;;;;;;;5039797;28;20546;-82
2022/09/16 04:26:39;;;;;;;17.37;16.47;;;;;;;;;;5043436;28;20459;-83
2022/09/16 04:29:06;;;;;;;17.57;16.67;;;;;;;;;;5040393;28;20518;-83
2022/09/16 04:31:34;;;;;;;18.03;16.80;;;;;;;;;;5053672;28;20450;-84
2022/09/16 04:34:02;;;;;;;16.50;15.70;;;;;;;;;;5065136;28;20470;-84
2022/09/16 04:36:30;;;;;;;17.47;16.60;;;;;;;;;;5064654;28;20459;-83
2022/09/16 04:38:59;;;;;;;17.87;16.77;;;;;;;;;;5060555;28;20470;-83
2022/09/16 04:41:27;;;;;;;17.93;16.83;;;;;;;;;;5062095;28;20410;-83
2022/09/16 04:43:56;;;;;;;17.33;16.30;;;;;;;;;;5062720;28;20839;-84
2022/09/16 04:46:23;;;;;;;18.00;16.90;;;;;;;;;;5063817;28;20450;-82
2022/09/16 04:48:52;;;;;;;18.67;17.67;;;;;;;;;;5060272;28;20461;-83
2022/09/16 04:51:19;;;;;;;18.17;17.10;;;;;;;;;;5059650;28;20460;-84
2022/09/16 04:53:47;;;;;;;20.10;18.30;;;;;;;;;;5059930;28;20466;-83
2022/09/16 04:56:17;;;;;;;17.83;16.83;;;;;;;;;;5059814;28;20438;-83
2022/09/16 04:58:45;;;;;;;19.63;18.27;;;;;;;;;;5059993;28;20811;-84
2022/09/16 05:01:13;;;;;;;19.20;18.20;;;;;;;;;;5062713;28;20459;-83
2022/09/16 05:03:41;;;;;;;19.00;17.80;;;;;;;;;;5058728;28;20940;-82
2022/09/16 05:06:10;;;;;;;17.97;16.87;;;;;;;;;;5058229;28;20457;-83
2022/09/16 05:08:38;;;;;;;17.80;16.70;;;;;;;;;;5058116;28;20477;-82
2022/09/16 05:11:06;;;;;;;18.53;17.53;;;;;;;;;;5055018;28;20822;-80
2022/09/16 05:13:34;;;;;;;18.03;16.93;;;;;;;;;;5055724;28;20494;-79
2022/09/16 05:16:03;;;;;;;19.00;17.90;;;;;;;;;;5056698;28;20457;-79
2022/09/16 05:18:30;;;;;;;19.30;18.10;;;;;;;;;;5056368;28;20455;-79
2022/09/16 05:20:59;;;;;;;19.03;17.93;;;;;;;;;;5056964;28;20815;-80
2022/09/16 05:23:26;;;;;;;20.00;18.60;;;;;;;;;;5056075;28;20493;-80
2022/09/16 05:25:53;;;;;;;18.33;17.23;;;;;;;;;;5056415;28;20420;-79
2022/09/16 05:28:21;;;;;;;18.73;17.57;;;;;;;;;;5058669;28;20489;-79
2022/09/16 05:30:49;;;;;;;18.33;17.33;;;;;;;;;;5057536;28;20417;-81
2022/09/16 05:33:17;;;;;;;18.60;17.37;;;;;;;;;;5056300;28;20449;-80
2022/09/16 05:35:44;;;;;;;19.70;18.50;;;;;;;;;;5057133;28;20450;-78
2022/09/16 05:38:12;;;;;;;18.60;17.43;;;;;;;;;;5056911;28;20801;-80
2022/09/16 05:40:40;;;;;;;18.47;17.07;;;;;;;;;;5056076;28;20429;-79
2022/09/16 05:43:07;;;;;;;19.17;17.77;;;;;;;;;;5056983;28;20457;-80
2022/09/16 05:45:34;;;;;;;19.27;18.07;;;;;;;;;;5060489;28;20436;-80
2022/09/16 05:48:03;;;;;;;19.53;18.23;;;;;;;;;;5060361;28;20460;-79
2022/09/16 05:50:31;;;;;;;19.70;18.17;;;;;;;;;;5060849;28;20449;-79
2022/09/16 05:52:58;;;;;;;18.90;17.70;;;;;;;;;;5060530;28;20953;-80
2022/09/16 05:55:26;;;;;;;17.80;16.90;;;;;;;;;;5059877;28;20428;-79
2022/09/16 05:57:53;;;;;;;19.20;18.10;;;;;;;;;;5059497;28;20435;-79
2022/09/16 06:00:21;;;;;;;19.27;18.17;;;;;;;;;;5058978;28;20461;-79
2022/09/16 06:02:49;;;;;;;18.60;17.50;;;;;;;;;;5059518;28;20954;-80
2022/09/16 06:05:17;;;;;;;18.87;17.30;;;;;;;;;;5059925;28;20458;-78
2022/09/16 06:07:45;;;;;;;18.87;17.57;;;;;;;;;;5059793;28;20452;-79
2022/09/16 06:10:12;;;;;;;19.50;18.10;;;;;;;;;;5059288;28;20421;-79
2022/09/16 06:12:39;;;;;;;18.43;17.33;;;;;;;;;;5062774;28;20971;-78
2022/09/16 06:15:08;;;;;;;19.30;18.10;;;;;;;;;;5059062;28;20522;-80
2022/09/16 06:17:36;;;;;;;20.97;18.87;;;;;;;;;;5059798;28;20457;-80
2022/09/16 06:20:04;;;;;;;19.00;17.77;;;;;;;;;;5059292;28;20426;-80
2022/09/16 06:22:33;;;;;;;19.50;18.30;;;;;;;;;;5058716;28;20518;-79
2022/09/16 06:25:00;;;;;;;18.43;17.43;;;;;;;;;;5059703;28;20401;-79
2022/09/16 06:27:28;;;;;;;18.97;17.87;;;;;;;;;;5059433;28;20806;-79
2022/09/16 06:29:55;;;;;;;19.03;17.93;;;;;;;;;;5058477;28;20464;-80
2022/09/16 06:32:23;;;;;;;19.73;18.60;;;;;;;;;;5058652;28;20447;-79
2022/09/16 06:34:51;;;;;;;19.53;18.17;;;;;;;;;;5058118;28;20436;-79
2022/09/16 06:37:18;;;;;;;20.17;18.67;;;;;;;;;;5058515;28;20418;-79
2022/09/16 06:39:47;;;;;;;18.77;17.53;;;;;;;;;;5058640;28;20457;-80
2022/09/16 06:42:14;;;;;;;19.97;18.40;;;;;;;;;;5058147;28;20478;-79
2022/09/16 06:44:42;;;;;;;20.13;18.70;;;;;;;;;;5058543;28;20438;-79
2022/09/16 06:47:09;;;;;;;19.43;17.80;;;;;;;;;;5061839;28;20461;-79
2022/09/16 06:49:37;;;;;;;19.77;18.53;;;;;;;;;;5060287;28;20508;-78
2022/09/16 06:52:04;;;;;;;19.47;17.97;;;;;;;;;;5059314;28;20462;-79
2022/09/16 06:54:33;;;;;;;19.93;18.27;;;;;;;;;;5058003;28;20798;-79
2022/09/16 06:57:01;;;;;;;19.03;17.90;;;;;;;;;;5057301;28;20983;-78
2022/09/16 06:59:29;;;;;;;18.03;17.00;;;;;;;;;;5057165;28;20455;-79
2022/09/16 07:01:56;;;;;;;19.40;18.40;;;;;;;;;;5056471;28;20483;-80
2022/09/16 07:04:24;;;;;;;19.33;18.13;;;;;;;;;;5056935;28;20484;-78
2022/09/16 07:06:51;;;;;;;18.83;17.70;;;;;;;;;;5057304;28;20454;-80
2022/09/16 07:09:18;;;;;;;18.70;17.53;;;;;;;;;;5059146;28;20486;-80
2022/09/16 07:11:46;;;;;;;18.57;17.37;;;;;;;;;;5057959;28;20878;-80
2022/09/16 07:14:14;;;;;;;18.20;17.20;;;;;;;;;;5056382;28;20807;-74
2022/09/16 07:16:42;;;;;;;18.93;17.83;;;;;;;;;;5054678;28;20453;-73
2022/09/16 07:19:09;;;;;;;19.40;17.93;;;;;;;;;;5054163;28;20429;-74
2022/09/16 07:21:37;;;;;;;19.00;17.80;;;;;;;;;;5053374;28;20432;-74
2022/09/16 07:24:05;;;;;;;18.37;17.33;;;;;;;;;;5053782;28;20462;-74
2022/09/16 07:26:33;;;;;;;18.43;17.10;;;;;;;;;;5053946;28;20553;-75
2022/09/16 07:29:02;;;;;;;18.57;17.43;;;;;;;;;;5053958;28;20474;-74
2022/09/16 07:31:31;;;;;;;19.50;18.10;;;;;;;;;;5053206;28;20454;-75
2022/09/16 07:34:00;;;;;;;18.57;17.37;;;;;;;;;;5053232;28;20478;-74
2022/09/16 07:36:28;;;;;;;18.00;17.10;;;;;;;;;;5053722;28;20455;-74
2022/09/16 07:38:57;;;;;;;19.73;18.10;;;;;;;;;;5053770;28;20417;-74
2022/09/16 07:41:25;;;;;;;18.37;17.10;;;;;;;;;;5052948;28;20431;-74
2022/09/16 07:43:54;;;;;;;18.53;17.43;;;;;;;;;;5052886;28;20510;-75
2022/09/16 07:46:21;;;;;;;19.50;18.50;;;;;;;;;;5054481;28;20452;-74
2022/09/16 07:48:50;;;;;;;18.00;17.00;;;;;;;;;;5054394;28;20845;-74
2022/09/16 07:51:18;;;;;;;17.83;16.93;;;;;;;;;;5053766;28;20425;-73
2022/09/16 07:53:47;;;;;;;19.00;18.00;;;;;;;;;;5054481;28;20490;-79
2022/09/16 07:56:15;;;;;;;19.13;18.13;;;;;;;;;;5054456;28;20974;-77
2022/09/16 07:58:43;;;;;;;19.93;18.93;;;;;;;;;;5055689;28;20431;-78
2022/09/16 08:01:11;;;;;;;21.30;19.40;;;;;;;;;;5049862;28;20459;-77
2022/09/16 08:03:39;;;;;;;18.57;17.43;;;;;;;;;;5055720;28;20462;-78
2022/09/16 08:06:10;;;;;;;18.30;17.30;;;;;;;;;;5054921;28;20451;-77
2022/09/16 08:08:38;;;;;;;18.60;17.50;;;;;;;;;;5055239;28;20453;-77
2022/09/16 08:11:06;;;;;;;19.03;17.90;;;;;;;;;;5053903;28;20417;-77
2022/09/16 08:13:34;;;;;;;24.07;19.47;;;;;;;;;;5053454;28;20475;-77
2022/09/16 08:16:02;;;;;;;18.67;17.67;;;;;;;;;;5053275;28;20470;-76
2022/09/16 08:18:30;;;;;;;19.03;17.87;;;;;;;;;;5053088;28;20933;-76
2022/09/16 08:20:58;;;;;;;20.27;18.90;;;;;;;;;;5053296;28;20511;-76
2022/09/16 08:23:27;;;;;;;19.23;17.80;;;;;;;;;;5038918;28;20483;-77
2022/09/16 08:25:57;;;;;;;18.80;17.70;;;;;;;;;;5034614;28;20448;-77
2022/09/16 08:28:25;;;;;;;19.13;17.80;;;;;;;;;;5034539;28;20497;-77
2022/09/16 08:30:52;;;;;;;19.83;18.30;;;;;;;;;;5033471;28;20464;-77
2022/09/16 08:33:20;;;;;;;18.33;17.33;;;;;;;;;;5032217;28;20978;-76
2022/09/16 08:35:48;;;;;;;18.27;17.27;;;;;;;;;;5033779;28;20452;-77
2022/09/16 08:38:15;;;;;;;19.00;17.60;;;;;;;;;;5033402;28;20430;-77
2022/09/16 08:40:46;;;;;;;19.37;18.10;;;;;;;;;;5032373;28;20451;-77
2022/09/16 08:43:16;;;;;;;19.63;18.13;;;;;;;;;;5033094;28;20475;-78
2022/09/16 08:45:48;;;;;;;19.13;17.93;;;;;;;;;;5033442;28;20433;-79
2022/09/16 08:48:26;;;;;;;21.07;19.30;;;;;;;;;;5032556;28;20475;-77
2022/09/16 08:50:53;;;;;;;19.90;18.60;;;;;;;;;;5032754;28;20477;-77
2022/09/16 08:53:24;;;;;;;20.27;19.07;;;;;;;;;;5032540;28;20472;-76
2022/09/16 08:55:53;;;;;;;20.10;18.60;;;;;;;;;;5032656;28;20457;-77
2022/09/16 08:58:21;;;;;;;20.97;19.13;;;;;;;;;;5032889;28;20938;-77
2022/09/16 09:00:54;;;;;;;23.07;20.90;;;;;;;;;;5032397;28;20447;-77
2022/09/16 09:03:31;;;;;;;21.00;19.67;;;;;;;;;;5033087;28;20469;-77
2022/09/16 09:05:59;;;;;;;20.90;19.80;;;;;;;;;;5032704;28;20777;-76
2022/09/16 09:08:33;;;;;;;21.47;19.97;;;;;;;;;;5033047;28;20464;-77
2022/09/16 09:11:03;;;;;;;23.97;21.77;;;;;;;;;;5032672;28;20485;-81
2022/09/16 09:13:39;;;;;;;20.73;19.30;;;;;;;;;;5032109;28;20524;-76
2022/09/16 09:16:13;;;;;;;20.77;19.47;;;;;;;;;;5033640;28;20440;-78
2022/09/16 09:18:44;;;;;;;21.07;19.77;;;;;;;;;;5038319;28;20406;-77
2022/09/16 09:21:20;;;;;;;23.83;21.90;;;;;;;;;;5036564;28;20475;-77
2022/09/16 09:23:52;;;;;;;21.53;20.23;;;;;;;;;;5035751;28;20503;-78
2022/09/16 09:26:23;;;;;;;23.63;21.90;;;;;;;;;;5036166;28;20479;-77
2022/09/16 09:29:03;;;;;;;22.20;20.50;;;;;;;;;;5036418;28;20464;-76
2022/09/16 09:31:34;;;;;;;21.83;20.53;;;;;;;;;;5035639;28;20449;-77
2022/09/16 09:34:05;;;;;;;22.23;20.93;;;;;;;;;;5035767;28;20593;-77
2022/09/16 09:36:39;;;;;;;24.00;21.57;;;;;;;;;;5038631;28;20451;-82
2022/09/16 09:39:18;;;;;;;23.17;21.37;;;;;;;;;;5036070;28;20818;-75
2022/09/16 09:41:48;;;;;;;22.73;21.30;;;;;;;;;;5035806;28;20867;-78
2022/09/16 09:44:34;;;;;;;23.40;21.47;;;;;;;;;;5040874;28;20468;-81
2022/09/16 09:47:03;;;;;;;22.40;20.93;;;;;;;;;;5037806;28;20825;-73
2022/09/16 09:49:33;;;;;;;21.80;20.60;;;;;;;;;;5035603;28;21176;-75
2022/09/16 09:52:02;;;;;;;22.60;21.10;;;;;;;;;;5044375;28;20570;-77
2022/09/16 09:54:32;;;;;;;22.20;20.73;;;;;;;;;;5055404;28;20442;-77
2022/09/16 09:57:03;;;;;;;22.17;20.73;;;;;;;;;;5056900;28;20501;-81
2022/09/16 09:59:32;;;;;;;22.00;20.60;;;;;;;;;;5061966;28;20443;-82
2022/09/16 10:02:00;;;;;;;23.10;21.20;;;;;;;;;;5057464;28;20473;-82
2022/09/16 10:04:30;;;;;;;25.07;22.97;;;;;;;;;;5056948;28;20424;-77
2022/09/16 10:06:59;;;;;;;24.60;23.07;;;;;;;;;;5056595;28;20472;-76
2022/09/16 10:09:26;;;;;;;25.87;23.97;;;;;;;;;;5055780;28;20488;-76
2022/09/16 10:11:55;;;;;;;26.90;24.80;;;;;;;;;;5055125;28;20460;-75
2022/09/16 10:14:28;;;;;;;26.97;24.57;;;;;;;;;;5054792;28;20448;-75
2022/09/16 10:16:55;;;;;;;24.10;22.50;;;;;;;;;;5054217;28;20827;-75
2022/09/16 10:19:24;;;;;;;24.87;23.37;;;;;;;;;;5055064;28;20451;-78
2022/09/16 10:21:53;;;;;;;25.57;23.50;;;;;;;;;;5054259;28;20427;-75
2022/09/16 10:24:28;;;;;;;24.43;22.43;;;;;;;;;;5052328;28;20463;-76
2022/09/16 10:26:55;;;;;;;23.23;21.70;;;;;;;;;;5054775;28;20538;-74
2022/09/16 10:29:22;;;;;;;22.60;20.93;;;;;;;;;;5053322;28;20862;-74
2022/09/16 10:31:51;;;;;;;24.47;21.97;;;;;;;;;;5053801;28;20452;-75
2022/09/16 10:34:21;;;;;;;23.13;20.87;;;;;;;;;;5055010;28;20945;-74
2022/09/16 10:36:59;;;;;;;23.57;21.13;;;;;;;;;;5055034;28;20534;-75
2022/09/16 10:39:27;;;;;;;24.70;22.87;;;;;;;;;;5054575;28;20503;-76
2022/09/16 10:41:55;;;;;;;24.00;22.17;;;;;;;;;;5053678;28;20447;-76
2022/09/16 10:44:24;;;;;;;23.50;22.00;;;;;;;;;;5054879;28;20449;-75
2022/09/16 10:46:55;;;;;;;22.33;20.93;;;;;;;;;;5054922;28;20461;-75
2022/09/16 10:49:24;;;;;;;22.77;21.23;;;;;;;;;;5055340;28;20427;-76
2022/09/16 10:51:52;;;;;;;22.80;21.20;;;;;;;;;;5054969;28;20930;-76
2022/09/16 10:54:27;;;;;;;23.80;22.03;;;;;;;;;;5055263;28;20446;-76
2022/09/16 10:56:55;;;;;;;24.07;22.17;;;;;;;;;;5054598;28;20452;-75
2022/09/16 10:59:22;;;;;;;22.27;20.93;;;;;;;;;;5054061;28;20426;-75
2022/09/16 11:01:55;;;;;;;24.37;22.23;;;;;;;;;;5056984;28;20788;-76
2022/09/16 11:04:40;;;;;;;24.47;22.37;;;;;;;;;;5055561;28;20530;-77
2022/09/16 11:07:22;;;;;;;22.80;20.87;;;;;;;;;;5043616;28;21072;-76
2022/09/16 11:09:55;;;;;;;21.60;20.20;;;;;;;;;;5055465;28;20480;-76
2022/09/16 11:12:37;;;;;;;21.60;19.90;;;;;;;;;;5057678;28;20471;-76
2022/09/16 11:15:11;;;;;;;24.23;21.93;;;;;;;;;;5040110;28;20457;-76
2022/09/16 11:17:44;;;;;;;22.60;21.07;;;;;;;;;;5059277;28;20445;-76
2022/09/16 11:20:30;;;;;;;23.10;21.50;;;;;;;;;;5060557;28;20772;-75
2022/09/16 11:23:02;;;;;;;22.73;21.33;;;;;;;;;;5057679;28;20871;-75
2022/09/16 11:25:43;;;;;;;24.20;22.40;;;;;;;;;;5056647;28;20431;-76
2022/09/16 11:28:19;;;;;;;24.03;21.90;;;;;;;;;;5056899;28;20498;-76
2022/09/16 11:30:52;;;;;;;23.33;21.90;;;;;;;;;;5055050;28;20473;-75
2022/09/16 11:33:25;;;;;;;23.40;21.60;;;;;;;;;;5053533;28;20489;-75
2022/09/16 11:36:04;;;;;;;23.00;21.40;;;;;;;;;;5060527;28;20451;-82
2022/09/16 11:38:37;;;;;;;23.50;21.80;;;;;;;;;;5064249;28;20433;-80
2022/09/16 11:41:10;;;;;;;24.97;22.83;;;;;;;;;;5063554;28;20515;-82
2022/09/16 11:43:51;;;;;;;23.10;21.57;;;;;;;;;;5058862;28;21020;-78
2022/09/16 11:46:22;;;;;;;22.90;21.50;;;;;;;;;;5053262;28;20474;-79
2022/09/16 11:49:05;;;;;;;23.23;21.40;;;;;;;;;;5039773;28;20437;-82
2022/09/16 11:51:40;;;;;;;22.23;20.73;;;;;;;;;;5039800;28;20467;-81
2022/09/16 11:54:18;;;;;;;21.30;19.77;;;;;;;;;;5041540;28;20516;-81
2022/09/16 11:56:48;;;;;;;23.43;20.90;;;;;;;;;;5042418;28;20893;-78
2022/09/16 11:59:19;;;;;;;22.53;20.80;;;;;;;;;;5040360;28;20425;-79
2022/09/16 12:01:49;;;;;;;25.90;23.20;;;;;;;;;;5038190;28;20441;-78
2022/09/16 12:04:19;;;;;;;23.50;21.93;;;;;;;;;;5042362;28;20453;-79
2022/09/16 12:06:51;;;;;;;22.80;21.10;;;;;;;;;;5041042;28;20464;-79
2022/09/16 12:09:21;;;;;;;21.33;20.13;;;;;;;;;;5037038;28;20433;-75
2022/09/16 12:11:52;;;;;;;22.50;21.03;;;;;;;;;;5035648;28;20497;-76
2022/09/16 12:14:21;;;;;;;24.20;22.10;;;;;;;;;;5034364;28;20478;-76
2022/09/16 12:16:50;;;;;;;23.90;22.30;;;;;;;;;;5034457;28;20460;-76
2022/09/16 12:19:20;;;;;;;23.03;21.23;;;;;;;;;;5034713;28;20525;-77
2022/09/16 12:21:50;;;;;;;60.93;56.70;;;;;;;;;;5044698;28;20537;-77
2022/09/16 12:24:20;;;;;;;63.17;59.47;;;;;;;;;;5051136;28;20490;-77
2022/09/16 12:26:53;;;;;;;342.53;321.67;;;;;;;;;;5054025;28;20931;-77
2022/09/16 12:29:21;;;;;;;324.63;303.20;;;;;;;;;;5053943;28;20453;-77
2022/09/16 12:31:52;;;;;;;344.07;311.83;;;;;;;;;;5053478;28;20487;-78
2022/09/16 12:34:22;;;;;;;48.90;45.87;;;;;;;;;;5055071;28;20427;-84
2022/09/16 12:36:53;;;;;;;44.43;41.43;;;;;;;;;;5064186;28;20427;-81
2022/09/16 12:39:20;;;;;;;41.20;38.60;;;;;;;;;;5058158;28;20460;-78
2022/09/16 12:42:05;;;;;;;43.30;40.80;;;;;;;;;;5055188;28;20417;-78
2022/09/16 12:44:48;;;;;;;41.80;39.03;;;;;;;;;;5055463;28;20436;-79
2022/09/16 12:47:34;;;;;;;42.83;40.10;;;;;;;;;;5017225;28;20499;-80
2022/09/16 12:50:09;;;;;;;43.67;40.97;;;;;;;;;;5042810;28;20455;-78
2022/09/16 12:52:44;;;;;;;45.40;42.50;;;;;;;;;;5037095;28;20491;-79
2022/09/16 12:55:29;;;;;;;42.53;40.13;;;;;;;;;;5040071;28;20436;-78
2022/09/16 12:58:05;;;;;;;43.93;41.43;;;;;;;;;;5039226;28;20531;-79
2022/09/16 13:00:35;;;;;;;43.90;41.30;;;;;;;;;;5039595;28;20446;-79
2022/09/16 13:03:07;;;;;;;46.33;43.53;;;;;;;;;;5039519;28;20482;-78
2022/09/16 13:05:36;;;;;;;265.63;238.33;;;;;;;;;;5038181;28;20424;-78
2022/09/16 13:08:04;;;;;;;48.13;44.10;;;;;;;;;;5039412;28;20474;-79
2022/09/16 13:10:33;;;;;;;48.70;45.70;;;;;;;;;;5040193;28;20495;-79
2022/09/16 13:13:02;;;;;;;44.53;42.03;;;;;;;;;;5037146;28;20450;-79
2022/09/16 13:15:30;;;;;;;49.20;46.10;;;;;;;;;;5037488;28;20442;-79
2022/09/16 13:18:09;;;;;;;45.17;42.77;;;;;;;;;;5037930;28;20430;-79
2022/09/16 13:20:38;;;;;;;45.20;42.40;;;;;;;;;;5036348;28;20513;-78
2022/09/16 13:23:07;;;;;;;42.70;40.00;;;;;;;;;;5037026;28;20552;-79
2022/09/16 13:25:36;;;;;;;40.73;38.33;;;;;;;;;;5036589;28;20445;-79
2022/09/16 13:28:24;;;;;;;42.90;40.27;;;;;;;;;;5037361;28;20445;-78
2022/09/16 13:30:51;;;;;;;44.07;41.67;;;;;;;;;;5038339;28;20529;-78
2022/09/16 13:33:26;;;;;;;41.63;39.37;;;;;;;;;;5036782;28;20500;-78
2022/09/16 13:36:14;;;;;;;41.73;39.00;;;;;;;;;;5037971;28;20502;-79
2022/09/16 13:38:42;;;;;;;45.73;42.70;;;;;;;;;;5037960;28;20454;-78
2022/09/16 13:41:11;;;;;;;44.33;41.67;;;;;;;;;;5036875;28;20447;-78
2022/09/16 13:43:50;;;;;;;40.97;38.87;;;;;;;;;;5037835;28;20491;-80
2022/09/16 13:46:27;;;;;;;36.10;34.10;;;;;;;;;;5048371;28;20454;-79
2022/09/16 13:48:57;;;;;;;34.40;32.50;;;;;;;;;;5057857;28;20441;-78
2022/09/16 13:51:25;;;;;;;27.57;25.47;;;;;;;;;;5056705;28;21040;-78
2022/09/16 13:53:52;;;;;;;27.33;25.83;;;;;;;;;;5056749;28;20530;-78
2022/09/16 13:56:50;;;;;;;27.77;26.27;;;;;;;;;;5058306;28;20475;-78
2022/09/16 13:59:29;;;;;;;252.73;231.07;;;;;;;;;;5001819;28;20875;-78
2022/09/16 14:02:01;;;;;;;172.63;160.77;;;;;;;;;;5051350;28;20452;-79
2022/09/16 14:04:35;;;;;;;28.73;26.80;;;;;;;;;;5056851;28;20462;-79
2022/09/16 14:07:12;;;;;;;27.60;25.40;;;;;;;;;;5057676;28;20427;-78
2022/09/16 14:09:42;;;;;;;24.40;23.20;;;;;;;;;;5061083;28;20417;-78
2022/09/16 14:12:14;;;;;;;21.10;20.00;;;;;;;;;;5059690;28;20501;-79
2022/09/16 14:14:44;;;;;;;23.37;21.20;;;;;;;;;;5067082;28;20478;-80
2022/09/16 14:17:15;;;;;;;21.80;20.20;;;;;;;;;;5066516;28;20442;-80
2022/09/16 14:19:45;;;;;;;23.30;20.97;;;;;;;;;;5067246;28;20394;-80
2022/09/16 14:22:15;;;;;;;20.80;19.63;;;;;;;;;;5066568;28;20459;-80
2022/09/16 14:24:43;;;;;;;22.00;20.37;;;;;;;;;;5058174;28;20474;-78
2022/09/16 14:27:19;;;;;;;21.70;20.13;;;;;;;;;;5058948;28;20435;-78
2022/09/16 14:29:56;;;;;;;21.23;19.77;;;;;;;;;;5058089;28;20420;-78
2022/09/16 14:32:25;;;;;;;21.90;20.70;;;;;;;;;;5060328;28;20889;-79
2022/09/16 14:34:53;;;;;;;21.10;19.60;;;;;;;;;;5058435;28;20482;-79